Time,TemperatureF,DewpointF,PressureIn,WindDirection,WindDirectionDegrees,WindSpeedMPH,WindSpeedGustMPH,Humidity,HourlyPrecipIn,Conditions,Clouds,dailyrainin,SoftwareType,DateUTC
2013-02-01 00:00:00,38.0,23.0,-100.00,North,6,12.0,-999.0,53,0.00,,,0.00,,2013-02-01 06:00:00,
2013-02-01 00:32:00,38.0,23.0,-100.00,North,6,12.0,-999.0,53,0.00,,,0.00,,2013-02-01 06:32:00,
2013-02-01 00:42:00,38.0,23.0,-100.00,North,6,12.0,-999.0,53,0.00,,,0.00,,2013-02-01 06:42:00,
2013-02-01 00:52:00,38.0,23.0,-100.00,North,6,12.0,-999.0,53,0.00,,,0.00,,2013-02-01 06:52:00,
2013-02-01 01:00:00,36.0,22.0,-100.00,North,1,10.0,-999.0,56,0.00,,,0.00,,2013-02-01 07:00:00,
2013-02-01 01:32:00,36.0,22.0,-100.00,North,1,10.0,-999.0,56,0.00,,,0.00,,2013-02-01 07:32:00,
2013-02-01 01:42:00,36.0,22.0,-100.00,North,1,10.0,-999.0,56,0.00,,,0.00,,2013-02-01 07:42:00,
2013-02-01 01:52:00,36.0,22.0,-100.00,North,1,10.0,-999.0,56,0.00,,,0.00,,2013-02-01 07:52:00,
2013-02-01 02:00:00,35.0,21.0,-100.00,North,5,5.0,-999.0,56,0.00,,,0.00,,2013-02-01 08:00:00,
2013-02-01 02:32:00,35.0,21.0,-100.00,North,5,5.0,-999.0,56,0.00,,,0.00,,2013-02-01 08:32:00,
2013-02-01 02:42:00,35.0,21.0,-100.00,North,5,5.0,-999.0,56,0.00,,,0.00,,2013-02-01 08:42:00,
2013-02-01 02:52:00,35.0,21.0,-100.00,North,5,5.0,-999.0,56,0.00,,,0.00,,2013-02-01 08:52:00,
2013-02-01 03:00:00,33.0,22.0,-100.00,North,4,3.0,-999.0,64,0.00,,,0.00,,2013-02-01 09:00:00,
2013-02-01 03:32:00,33.0,22.0,-100.00,North,4,3.0,-999.0,64,0.00,,,0.00,,2013-02-01 09:32:00,
2013-02-01 03:42:00,33.0,22.0,-100.00,North,4,3.0,-999.0,64,0.00,,,0.00,,2013-02-01 09:42:00,
2013-02-01 03:52:00,33.0,22.0,-100.00,North,4,3.0,-999.0,64,0.00,,,0.00,,2013-02-01 09:52:00,
2013-02-01 04:00:00,32.0,19.0,-100.00,North,353,4.0,-999.0,58,0.00,,,0.00,,2013-02-01 10:00:00,
2013-02-01 04:32:00,32.0,19.0,-100.00,North,353,4.0,-999.0,58,0.00,,,0.00,,2013-02-01 10:32:00,
2013-02-01 04:43:00,32.0,19.0,-100.00,North,353,4.0,-999.0,58,0.00,,,0.00,,2013-02-01 10:43:00,
2013-02-01 04:53:00,32.0,19.0,-100.00,North,353,4.0,-999.0,58,0.00,,,0.00,,2013-02-01 10:53:00,
2013-02-01 05:00:00,31.0,20.0,-100.00,North,4,6.0,-999.0,63,0.00,,,0.00,,2013-02-01 11:00:00,
2013-02-01 05:32:00,31.0,20.0,-100.00,North,4,6.0,-999.0,63,0.00,,,0.00,,2013-02-01 11:32:00,
2013-02-01 05:42:00,31.0,20.0,-100.00,North,4,6.0,-999.0,63,0.00,,,0.00,,2013-02-01 11:42:00,
2013-02-01 05:53:00,31.0,20.0,-100.00,North,4,6.0,-999.0,63,0.00,,,0.00,,2013-02-01 11:53:00,
2013-02-01 06:00:00,29.0,20.0,-100.00,North,2,5.0,-999.0,67,0.00,,,0.00,,2013-02-01 12:00:00,
2013-02-01 06:32:00,29.0,20.0,-100.00,North,2,5.0,-999.0,67,0.00,,,0.00,,2013-02-01 12:32:00,
2013-02-01 06:42:00,29.0,20.0,-100.00,North,2,5.0,-999.0,67,0.00,,,0.00,,2013-02-01 12:42:00,
2013-02-01 06:52:00,29.0,20.0,-100.00,North,2,5.0,-999.0,67,0.00,,,0.00,,2013-02-01 12:52:00,
2013-02-01 07:00:00,29.0,17.0,-100.00,NNE,12,6.0,-999.0,61,0.00,,,0.00,,2013-02-01 13:00:00,
2013-02-01 07:33:00,29.0,17.0,-100.00,NNE,12,6.0,-999.0,61,0.00,,,0.00,,2013-02-01 13:33:00,
2013-02-01 07:43:00,29.0,17.0,-100.00,NNE,12,6.0,-999.0,61,0.00,,,0.00,,2013-02-01 13:43:00,
2013-02-01 07:53:00,29.0,17.0,-100.00,NNE,12,6.0,-999.0,61,0.00,,,0.00,,2013-02-01 13:53:00,
2013-02-01 08:00:00,29.0,18.0,-100.00,NNE,13,4.0,-999.0,63,0.00,,,0.00,,2013-02-01 14:00:00,
2013-02-01 08:32:00,29.0,18.0,-100.00,NNE,13,4.0,-999.0,63,0.00,,,0.00,,2013-02-01 14:32:00,
2013-02-01 08:42:00,29.0,18.0,-100.00,NNE,13,4.0,-999.0,63,0.00,,,0.00,,2013-02-01 14:42:00,
2013-02-01 08:53:00,29.0,18.0,-100.00,NNE,13,4.0,-999.0,63,0.00,,,0.00,,2013-02-01 14:53:00,
2013-02-01 09:00:00,33.0,18.0,-100.00,East,84,6.0,-999.0,54,0.00,,,0.00,,2013-02-01 15:00:00,
2013-02-01 09:33:00,33.0,18.0,-100.00,East,84,6.0,-999.0,54,0.00,,,0.00,,2013-02-01 15:33:00,
2013-02-01 09:42:00,33.0,18.0,-100.00,East,84,6.0,-999.0,54,0.00,,,0.00,,2013-02-01 15:42:00,
2013-02-01 09:52:00,33.0,18.0,-100.00,East,84,6.0,-999.0,54,0.00,,,0.00,,2013-02-01 15:52:00,
2013-02-01 10:00:00,37.0,18.0,-100.00,SE,131,8.0,-999.0,47,0.00,,,0.00,,2013-02-01 16:00:00,
2013-02-01 10:33:00,37.0,18.0,-100.00,SE,131,8.0,-999.0,47,0.00,,,0.00,,2013-02-01 16:33:00,
2013-02-01 10:43:00,37.0,18.0,-100.00,SE,131,8.0,-999.0,47,0.00,,,0.00,,2013-02-01 16:43:00,
2013-02-01 10:52:00,37.0,18.0,-100.00,SE,131,8.0,-999.0,47,0.00,,,0.00,,2013-02-01 16:52:00,
2013-02-01 11:00:00,40.0,21.0,-100.00,ESE,104,5.0,-999.0,46,0.00,,,0.00,,2013-02-01 17:00:00,
2013-02-01 11:32:00,40.0,21.0,-100.00,ESE,104,5.0,-999.0,46,0.00,,,0.00,,2013-02-01 17:32:00,
2013-02-01 11:42:00,40.0,21.0,-100.00,ESE,104,5.0,-999.0,46,0.00,,,0.00,,2013-02-01 17:42:00,
2013-02-01 11:53:00,40.0,21.0,-100.00,ESE,104,5.0,-999.0,46,0.00,,,0.00,,2013-02-01 17:53:00,
2013-02-01 12:00:00,44.0,20.0,-100.00,ESE,111,5.0,-999.0,38,0.00,,,0.00,,2013-02-01 18:00:00,
2013-02-01 12:32:00,44.0,20.0,-100.00,ESE,111,5.0,-999.0,38,0.00,,,0.00,,2013-02-01 18:32:00,
2013-02-01 12:42:00,44.0,20.0,-100.00,ESE,111,5.0,-999.0,38,0.00,,,0.00,,2013-02-01 18:42:00,
2013-02-01 12:53:00,44.0,20.0,-100.00,ESE,111,5.0,-999.0,38,0.00,,,0.00,,2013-02-01 18:53:00,
2013-02-01 13:00:00,48.0,19.0,-100.00,SE,132,10.0,-999.0,31,0.00,,,0.00,,2013-02-01 19:00:00,
2013-02-01 13:32:00,48.0,19.0,-100.00,SE,132,10.0,-999.0,31,0.00,,,0.00,,2013-02-01 19:32:00,
2013-02-01 13:42:00,48.0,19.0,-100.00,SE,132,10.0,-999.0,31,0.00,,,0.00,,2013-02-01 19:42:00,
2013-02-01 13:52:00,48.0,19.0,-100.00,SE,132,10.0,-999.0,31,0.00,,,0.00,,2013-02-01 19:52:00,
2013-02-01 14:00:00,49.0,22.0,-100.00,ESE,116,7.0,-999.0,33,0.00,,,0.00,,2013-02-01 20:00:00,
2013-02-01 14:32:00,49.0,22.0,-100.00,ESE,116,7.0,-999.0,33,0.00,,,0.00,,2013-02-01 20:32:00,
2013-02-01 14:42:00,49.0,22.0,-100.00,ESE,116,7.0,-999.0,33,0.00,,,0.00,,2013-02-01 20:42:00,
2013-02-01 14:52:00,49.0,22.0,-100.00,ESE,116,7.0,-999.0,33,0.00,,,0.00,,2013-02-01 20:52:00,
2013-02-01 15:00:00,51.0,21.0,-100.00,SE,142,11.0,-999.0,31,0.00,,,0.00,,2013-02-01 21:00:00,
2013-02-01 15:32:00,51.0,21.0,-100.00,SE,142,11.0,-999.0,31,0.00,,,0.00,,2013-02-01 21:32:00,
2013-02-01 15:42:00,51.0,21.0,-100.00,SE,142,11.0,-999.0,31,0.00,,,0.00,,2013-02-01 21:42:00,
2013-02-01 15:52:00,51.0,21.0,-100.00,SE,142,11.0,-999.0,31,0.00,,,0.00,,2013-02-01 21:52:00,
2013-02-01 16:00:00,51.0,21.0,-100.00,SE,144,8.0,-999.0,31,0.00,,,0.00,,2013-02-01 22:00:00,
2013-02-01 16:32:00,51.0,21.0,-100.00,SE,144,8.0,-999.0,31,0.00,,,0.00,,2013-02-01 22:32:00,
2013-02-01 16:42:00,51.0,21.0,-100.00,SE,144,8.0,-999.0,31,0.00,,,0.00,,2013-02-01 22:42:00,
2013-02-01 16:52:00,51.0,21.0,-100.00,SE,144,8.0,-999.0,31,0.00,,,0.00,,2013-02-01 22:52:00,
2013-02-01 17:00:00,50.0,19.0,-100.00,SSE,155,12.0,-999.0,30,0.00,,,0.00,,2013-02-01 23:00:00,
2013-02-01 17:32:00,50.0,19.0,-100.00,SSE,155,12.0,-999.0,30,0.00,,,0.00,,2013-02-01 23:32:00,
2013-02-01 17:42:00,50.0,19.0,-100.00,SSE,155,12.0,-999.0,30,0.00,,,0.00,,2013-02-01 23:42:00,
2013-02-01 17:52:00,50.0,19.0,-100.00,SSE,155,12.0,-999.0,30,0.00,,,0.00,,2013-02-01 23:52:00,
2013-02-01 18:00:00,45.0,19.0,-100.00,SE,134,7.0,-999.0,35,0.00,,,0.00,,2013-02-02 00:00:00,
2013-02-01 18:32:00,45.0,19.0,-100.00,SE,134,7.0,-999.0,35,0.00,,,0.00,,2013-02-02 00:32:00,
2013-02-01 18:42:00,45.0,19.0,-100.00,SE,134,7.0,-999.0,35,0.00,,,0.00,,2013-02-02 00:42:00,
2013-02-01 18:52:00,45.0,19.0,-100.00,SE,134,7.0,-999.0,35,0.00,,,0.00,,2013-02-02 00:52:00,
2013-02-01 19:00:00,43.0,21.0,-100.00,ESE,107,6.0,-999.0,41,0.00,,,0.00,,2013-02-02 01:00:00,
2013-02-01 19:32:00,43.0,21.0,-100.00,ESE,107,6.0,-999.0,41,0.00,,,0.00,,2013-02-02 01:32:00,
2013-02-01 19:42:00,43.0,21.0,-100.00,ESE,107,6.0,-999.0,41,0.00,,,0.00,,2013-02-02 01:42:00,
2013-02-01 19:52:00,43.0,21.0,-100.00,ESE,107,6.0,-999.0,41,0.00,,,0.00,,2013-02-02 01:52:00,
2013-02-01 20:00:00,41.0,21.0,-100.00,ESE,104,5.0,-999.0,43,0.00,,,0.00,,2013-02-02 02:00:00,
2013-02-01 20:32:00,41.0,21.0,-100.00,ESE,104,5.0,-999.0,43,0.00,,,0.00,,2013-02-02 02:32:00,
2013-02-01 20:42:00,41.0,21.0,-100.00,ESE,104,5.0,-999.0,43,0.00,,,0.00,,2013-02-02 02:42:00,
2013-02-01 20:52:00,41.0,21.0,-100.00,ESE,104,5.0,-999.0,43,0.00,,,0.00,,2013-02-02 02:52:00,
2013-02-01 21:00:00,40.0,21.0,-100.00,SE,138,4.0,-999.0,46,0.00,,,0.00,,2013-02-02 03:00:00,
2013-02-01 21:32:00,40.0,21.0,-100.00,SE,138,4.0,-999.0,46,0.00,,,0.00,,2013-02-02 03:32:00,
2013-02-01 21:42:00,40.0,21.0,-100.00,SE,138,4.0,-999.0,46,0.00,,,0.00,,2013-02-02 03:42:00,
2013-02-01 21:52:00,40.0,21.0,-100.00,SE,138,4.0,-999.0,46,0.00,,,0.00,,2013-02-02 03:52:00,
2013-02-01 22:00:00,39.0,21.0,-100.00,SSE,150,5.0,-999.0,48,0.00,,,0.00,,2013-02-02 04:00:00,
2013-02-01 22:32:00,39.0,21.0,-100.00,SSE,150,5.0,-999.0,48,0.00,,,0.00,,2013-02-02 04:32:00,
2013-02-01 22:42:00,39.0,21.0,-100.00,SSE,150,5.0,-999.0,48,0.00,,,0.00,,2013-02-02 04:42:00,
2013-02-01 22:52:00,39.0,21.0,-100.00,SSE,150,5.0,-999.0,48,0.00,,,0.00,,2013-02-02 04:52:00,
2013-02-01 23:00:00,39.0,22.0,-100.00,ESE,120,5.0,-999.0,50,0.00,,,0.00,,2013-02-02 05:00:00,
2013-02-01 23:33:00,39.0,22.0,-100.00,ESE,120,5.0,-999.0,50,0.00,,,0.00,,2013-02-02 05:33:00,
2013-02-01 23:42:00,39.0,22.0,-100.00,ESE,120,5.0,-999.0,50,0.00,,,0.00,,2013-02-02 05:42:00,
2013-02-01 23:52:00,39.0,22.0,-100.00,ESE,120,5.0,-999.0,50,0.00,,,0.00,,2013-02-02 05:52:00,